sensor_id;sensor_type;location;lat;lon;timestamp;P1;durP1;ratioP1;P2;durP2;ratioP2
66567;SDS011;53422;49.296;6.900;2023-11-21T00:00:09;1.75;;;1.50;;
66567;SDS011;53422;49.296;6.900;2023-11-21T00:02:37;1.58;;;1.33;;
66567;SDS011;53422;49.296;6.900;2023-11-21T00:05:05;1.48;;;1.08;;
66567;SDS011;53422;49.296;6.900;2023-11-21T00:07:35;2.90;;;1.23;;
66567;SDS011;53422;49.296;6.900;2023-11-21T00:10:03;1.83;;;0.93;;
66567;SDS011;53422;49.296;6.900;2023-11-21T00:12:33;1.73;;;1.33;;
66567;SDS011;53422;49.296;6.900;2023-11-21T00:14:59;2.78;;;1.13;;
66567;SDS011;53422;49.296;6.900;2023-11-21T00:17:26;1.98;;;1.10;;
66567;SDS011;53422;49.296;6.900;2023-11-21T00:19:52;2.83;;;1.63;;
66567;SDS011;53422;49.296;6.900;2023-11-21T00:22:18;3.15;;;1.60;;
66567;SDS011;53422;49.296;6.900;2023-11-21T00:24:44;2.85;;;1.48;;
66567;SDS011;53422;49.296;6.900;2023-11-21T00:27:10;2.75;;;1.80;;
66567;SDS011;53422;49.296;6.900;2023-11-21T00:29:35;2.40;;;1.42;;
66567;SDS011;53422;49.296;6.900;2023-11-21T00:32:01;3.15;;;1.73;;
66567;SDS011;53422;49.296;6.900;2023-11-21T00:34:27;2.47;;;1.35;;
66567;SDS011;53422;49.296;6.900;2023-11-21T00:36:53;2.00;;;1.42;;
66567;SDS011;53422;49.296;6.900;2023-11-21T00:39:18;3.45;;;2.20;;
66567;SDS011;53422;49.296;6.900;2023-11-21T00:41:44;3.08;;;1.60;;
66567;SDS011;53422;49.296;6.900;2023-11-21T00:44:10;3.72;;;1.67;;
66567;SDS011;53422;49.296;6.900;2023-11-21T00:46:36;2.53;;;1.65;;
66567;SDS011;53422;49.296;6.900;2023-11-21T00:49:02;3.63;;;2.65;;
66567;SDS011;53422;49.296;6.900;2023-11-21T00:51:29;2.33;;;1.80;;
66567;SDS011;53422;49.296;6.900;2023-11-21T00:53:55;3.05;;;1.83;;
66567;SDS011;53422;49.296;6.900;2023-11-21T00:56:21;3.05;;;1.80;;
66567;SDS011;53422;49.296;6.900;2023-11-21T00:58:47;3.25;;;1.63;;
66567;SDS011;53422;49.296;6.900;2023-11-21T01:01:15;2.20;;;1.27;;
66567;SDS011;53422;49.296;6.900;2023-11-21T01:03:41;4.88;;;2.00;;
66567;SDS011;53422;49.296;6.900;2023-11-21T01:06:07;5.05;;;2.80;;
66567;SDS011;53422;49.296;6.900;2023-11-21T01:08:33;2.88;;;1.73;;
66567;SDS011;53422;49.296;6.900;2023-11-21T01:10:59;3.58;;;2.45;;
66567;SDS011;53422;49.296;6.900;2023-11-21T01:13:25;3.15;;;1.90;;
66567;SDS011;53422;49.296;6.900;2023-11-21T01:15:54;5.53;;;3.38;;
66567;SDS011;53422;49.296;6.900;2023-11-21T01:18:20;4.65;;;1.95;;
66567;SDS011;53422;49.296;6.900;2023-11-21T01:20:46;2.85;;;2.13;;
66567;SDS011;53422;49.296;6.900;2023-11-21T01:23:12;2.75;;;1.90;;
66567;SDS011;53422;49.296;6.900;2023-11-21T01:25:38;2.50;;;1.70;;
66567;SDS011;53422;49.296;6.900;2023-11-21T01:28:04;3.13;;;2.15;;
66567;SDS011;53422;49.296;6.900;2023-11-21T01:30:30;2.50;;;1.25;;
66567;SDS011;53422;49.296;6.900;2023-11-21T01:32:57;4.60;;;2.08;;
66567;SDS011;53422;49.296;6.900;2023-11-21T01:35:23;4.15;;;2.00;;
66567;SDS011;53422;49.296;6.900;2023-11-21T01:37:49;3.78;;;2.25;;
66567;SDS011;53422;49.296;6.900;2023-11-21T01:40:14;3.08;;;1.80;;
66567;SDS011;53422;49.296;6.900;2023-11-21T01:42:41;3.42;;;1.92;;
66567;SDS011;53422;49.296;6.900;2023-11-21T01:45:08;3.72;;;2.42;;
66567;SDS011;53422;49.296;6.900;2023-11-21T01:47:35;3.72;;;2.28;;
66567;SDS011;53422;49.296;6.900;2023-11-21T01:50:03;4.50;;;2.22;;
66567;SDS011;53422;49.296;6.900;2023-11-21T01:52:33;3.00;;;1.50;;
66567;SDS011;53422;49.296;6.900;2023-11-21T01:54:59;3.03;;;1.33;;
66567;SDS011;53422;49.296;6.900;2023-11-21T01:57:25;4.22;;;2.40;;
66567;SDS011;53422;49.296;6.900;2023-11-21T01:59:51;3.17;;;1.70;;
66567;SDS011;53422;49.296;6.900;2023-11-21T02:02:19;4.47;;;2.85;;
66567;SDS011;53422;49.296;6.900;2023-11-21T02:04:45;3.42;;;2.00;;
66567;SDS011;53422;49.296;6.900;2023-11-21T02:07:11;4.07;;;2.53;;
66567;SDS011;53422;49.296;6.900;2023-11-21T02:09:36;3.92;;;2.40;;
66567;SDS011;53422;49.296;6.900;2023-11-21T02:12:07;3.67;;;2.22;;
66567;SDS011;53422;49.296;6.900;2023-11-21T02:14:35;4.15;;;2.75;;
66567;SDS011;53422;49.296;6.900;2023-11-21T02:17:02;4.78;;;2.05;;
66567;SDS011;53422;49.296;6.900;2023-11-21T02:19:28;3.42;;;2.25;;
66567;SDS011;53422;49.296;6.900;2023-11-21T02:21:56;3.92;;;2.47;;
66567;SDS011;53422;49.296;6.900;2023-11-21T02:24:31;3.42;;;1.65;;
66567;SDS011;53422;49.296;6.900;2023-11-21T02:26:57;3.42;;;2.40;;
66567;SDS011;53422;49.296;6.900;2023-11-21T02:29:23;3.67;;;2.20;;
66567;SDS011;53422;49.296;6.900;2023-11-21T02:31:53;3.95;;;2.22;;
66567;SDS011;53422;49.296;6.900;2023-11-21T02:34:20;4.45;;;3.28;;
66567;SDS011;53422;49.296;6.900;2023-11-21T02:36:46;8.00;;;2.95;;
66567;SDS011;53422;49.296;6.900;2023-11-21T02:39:14;2.97;;;2.03;;
66567;SDS011;53422;49.296;6.900;2023-11-21T02:41:41;3.90;;;2.28;;
66567;SDS011;53422;49.296;6.900;2023-11-21T02:44:07;3.53;;;2.40;;
66567;SDS011;53422;49.296;6.900;2023-11-21T02:46:33;3.90;;;2.38;;
66567;SDS011;53422;49.296;6.900;2023-11-21T02:49:00;4.38;;;2.53;;
66567;SDS011;53422;49.296;6.900;2023-11-21T02:51:31;4.40;;;2.75;;
66567;SDS011;53422;49.296;6.900;2023-11-21T02:53:57;4.03;;;2.38;;
66567;SDS011;53422;49.296;6.900;2023-11-21T02:56:27;3.88;;;2.05;;
66567;SDS011;53422;49.296;6.900;2023-11-21T02:58:55;4.05;;;2.08;;
66567;SDS011;53422;49.296;6.900;2023-11-21T03:01:21;6.05;;;2.67;;
66567;SDS011;53422;49.296;6.900;2023-11-21T03:03:48;5.00;;;2.30;;
66567;SDS011;53422;49.296;6.900;2023-11-21T03:06:16;4.38;;;2.60;;
66567;SDS011;53422;49.296;6.900;2023-11-21T03:08:43;3.70;;;2.42;;
66567;SDS011;53422;49.296;6.900;2023-11-21T03:11:08;4.10;;;2.35;;
66567;SDS011;53422;49.296;6.900;2023-11-21T03:13:34;4.00;;;2.08;;
66567;SDS011;53422;49.296;6.900;2023-11-21T03:16:00;4.70;;;2.60;;
66567;SDS011;53422;49.296;6.900;2023-11-21T03:18:25;4.25;;;2.72;;
66567;SDS011;53422;49.296;6.900;2023-11-21T03:20:54;3.22;;;2.05;;
66567;SDS011;53422;49.296;6.900;2023-11-21T03:23:20;5.28;;;3.10;;
66567;SDS011;53422;49.296;6.900;2023-11-21T03:25:45;4.80;;;2.97;;
66567;SDS011;53422;49.296;6.900;2023-11-21T03:28:11;3.80;;;2.58;;
66567;SDS011;53422;49.296;6.900;2023-11-21T03:30:37;4.40;;;2.38;;
66567;SDS011;53422;49.296;6.900;2023-11-21T03:33:02;3.45;;;2.25;;
66567;SDS011;53422;49.296;6.900;2023-11-21T03:35:28;3.42;;;1.73;;
66567;SDS011;53422;49.296;6.900;2023-11-21T03:37:54;3.30;;;2.17;;
66567;SDS011;53422;49.296;6.900;2023-11-21T03:40:19;3.78;;;2.05;;
66567;SDS011;53422;49.296;6.900;2023-11-21T03:42:47;4.03;;;2.13;;
66567;SDS011;53422;49.296;6.900;2023-11-21T03:45:13;3.95;;;2.45;;
66567;SDS011;53422;49.296;6.900;2023-11-21T03:47:41;5.68;;;2.92;;
66567;SDS011;53422;49.296;6.900;2023-11-21T03:50:07;5.53;;;2.78;;
66567;SDS011;53422;49.296;6.900;2023-11-21T03:52:34;7.30;;;3.58;;
66567;SDS011;53422;49.296;6.900;2023-11-21T03:55:00;5.93;;;2.33;;
66567;SDS011;53422;49.296;6.900;2023-11-21T03:57:26;5.57;;;3.70;;
66567;SDS011;53422;49.296;6.900;2023-11-21T03:59:52;4.57;;;2.92;;
66567;SDS011;53422;49.296;6.900;2023-11-21T04:02:18;5.93;;;2.38;;
66567;SDS011;53422;49.296;6.900;2023-11-21T04:04:44;5.68;;;2.92;;
66567;SDS011;53422;49.296;6.900;2023-11-21T04:07:10;7.20;;;3.25;;
66567;SDS011;53422;49.296;6.900;2023-11-21T04:09:36;5.88;;;3.10;;
66567;SDS011;53422;49.296;6.900;2023-11-21T04:12:02;5.50;;;2.90;;
66567;SDS011;53422;49.296;6.900;2023-11-21T04:14:27;10.82;;;2.15;;
66567;SDS011;53422;49.296;6.900;2023-11-21T04:16:53;4.22;;;3.13;;
66567;SDS011;53422;49.296;6.900;2023-11-21T04:19:19;4.70;;;2.35;;
66567;SDS011;53422;49.296;6.900;2023-11-21T04:21:45;6.53;;;2.97;;
66567;SDS011;53422;49.296;6.900;2023-11-21T04:24:11;9.38;;;3.17;;
66567;SDS011;53422;49.296;6.900;2023-11-21T04:26:37;5.55;;;3.10;;
66567;SDS011;53422;49.296;6.900;2023-11-21T04:29:03;5.60;;;3.15;;
66567;SDS011;53422;49.296;6.900;2023-11-21T04:31:29;5.03;;;2.70;;
66567;SDS011;53422;49.296;6.900;2023-11-21T04:33:55;5.15;;;3.22;;
66567;SDS011;53422;49.296;6.900;2023-11-21T04:36:21;4.30;;;2.88;;
66567;SDS011;53422;49.296;6.900;2023-11-21T04:38:47;4.85;;;1.67;;
66567;SDS011;53422;49.296;6.900;2023-11-21T04:41:12;2.92;;;1.83;;
66567;SDS011;53422;49.296;6.900;2023-11-21T04:43:38;3.65;;;2.25;;
66567;SDS011;53422;49.296;6.900;2023-11-21T04:46:03;4.28;;;1.75;;
66567;SDS011;53422;49.296;6.900;2023-11-21T04:48:29;3.28;;;1.40;;
66567;SDS011;53422;49.296;6.900;2023-11-21T04:50:55;4.20;;;1.23;;
66567;SDS011;53422;49.296;6.900;2023-11-21T04:53:21;4.15;;;1.75;;
66567;SDS011;53422;49.296;6.900;2023-11-21T04:55:47;5.47;;;2.42;;
66567;SDS011;53422;49.296;6.900;2023-11-21T04:58:13;3.33;;;2.08;;
66567;SDS011;53422;49.296;6.900;2023-11-21T05:00:39;3.83;;;2.50;;
66567;SDS011;53422;49.296;6.900;2023-11-21T05:03:05;3.28;;;1.70;;
66567;SDS011;53422;49.296;6.900;2023-11-21T05:05:32;3.28;;;1.90;;
66567;SDS011;53422;49.296;6.900;2023-11-21T05:07:59;3.45;;;2.55;;
66567;SDS011;53422;49.296;6.900;2023-11-21T05:10:24;4.78;;;1.77;;
66567;SDS011;53422;49.296;6.900;2023-11-21T05:12:50;3.15;;;2.28;;
66567;SDS011;53422;49.296;6.900;2023-11-21T05:15:16;2.47;;;1.58;;
66567;SDS011;53422;49.296;6.900;2023-11-21T05:17:42;3.15;;;1.70;;
66567;SDS011;53422;49.296;6.900;2023-11-21T05:20:13;2.83;;;1.67;;
66567;SDS011;53422;49.296;6.900;2023-11-21T05:22:42;3.05;;;1.65;;
66567;SDS011;53422;49.296;6.900;2023-11-21T05:25:08;2.53;;;1.52;;
66567;SDS011;53422;49.296;6.900;2023-11-21T05:27:35;2.72;;;1.67;;
66567;SDS011;53422;49.296;6.900;2023-11-21T05:30:01;4.15;;;2.08;;
66567;SDS011;53422;49.296;6.900;2023-11-21T05:32:30;2.72;;;1.90;;
66567;SDS011;53422;49.296;6.900;2023-11-21T05:34:56;3.55;;;1.90;;
66567;SDS011;53422;49.296;6.900;2023-11-21T05:37:22;3.90;;;1.75;;
66567;SDS011;53422;49.296;6.900;2023-11-21T05:39:48;4.53;;;1.98;;
66567;SDS011;53422;49.296;6.900;2023-11-21T05:42:14;3.33;;;2.45;;
66567;SDS011;53422;49.296;6.900;2023-11-21T05:44:41;3.47;;;1.98;;
66567;SDS011;53422;49.296;6.900;2023-11-21T05:47:08;3.38;;;3.08;;
66567;SDS011;53422;49.296;6.900;2023-11-21T05:49:34;2.30;;;1.73;;
66567;SDS011;53422;49.296;6.900;2023-11-21T05:52:00;2.60;;;1.63;;
66567;SDS011;53422;49.296;6.900;2023-11-21T05:54:26;3.00;;;2.35;;
66567;SDS011;53422;49.296;6.900;2023-11-21T05:56:52;2.33;;;1.63;;
66567;SDS011;53422;49.296;6.900;2023-11-21T05:59:17;5.22;;;2.10;;
66567;SDS011;53422;49.296;6.900;2023-11-21T06:01:43;2.75;;;1.75;;
66567;SDS011;53422;49.296;6.900;2023-11-21T06:04:10;2.50;;;1.88;;
66567;SDS011;53422;49.296;6.900;2023-11-21T06:06:37;3.42;;;1.92;;
66567;SDS011;53422;49.296;6.900;2023-11-21T06:09:04;2.63;;;1.50;;
66567;SDS011;53422;49.296;6.900;2023-11-21T06:11:31;2.72;;;1.90;;
66567;SDS011;53422;49.296;6.900;2023-11-21T06:13:57;2.63;;;1.70;;
66567;SDS011;53422;49.296;6.900;2023-11-21T06:16:23;3.83;;;2.20;;
66567;SDS011;53422;49.296;6.900;2023-11-21T06:18:49;2.63;;;1.98;;
66567;SDS011;53422;49.296;6.900;2023-11-21T06:21:14;2.72;;;1.58;;
66567;SDS011;53422;49.296;6.900;2023-11-21T06:23:41;2.42;;;1.67;;
66567;SDS011;53422;49.296;6.900;2023-11-21T06:26:07;2.53;;;1.63;;
66567;SDS011;53422;49.296;6.900;2023-11-21T06:28:34;3.60;;;1.50;;
66567;SDS011;53422;49.296;6.900;2023-11-21T06:31:01;2.75;;;1.40;;
66567;SDS011;53422;49.296;6.900;2023-11-21T06:33:30;2.83;;;1.70;;
66567;SDS011;53422;49.296;6.900;2023-11-21T06:35:57;3.35;;;1.95;;
66567;SDS011;53422;49.296;6.900;2023-11-21T06:38:22;2.67;;;1.52;;
66567;SDS011;53422;49.296;6.900;2023-11-21T06:40:48;2.75;;;1.67;;
66567;SDS011;53422;49.296;6.900;2023-11-21T06:43:13;2.55;;;1.75;;
66567;SDS011;53422;49.296;6.900;2023-11-21T06:45:40;2.78;;;1.60;;
66567;SDS011;53422;49.296;6.900;2023-11-21T06:48:06;4.45;;;2.67;;
66567;SDS011;53422;49.296;6.900;2023-11-21T06:50:32;3.78;;;2.05;;
66567;SDS011;53422;49.296;6.900;2023-11-21T06:52:57;4.30;;;2.08;;
66567;SDS011;53422;49.296;6.900;2023-11-21T06:55:23;3.17;;;2.08;;
66567;SDS011;53422;49.296;6.900;2023-11-21T06:57:49;4.47;;;2.15;;
66567;SDS011;53422;49.296;6.900;2023-11-21T07:00:17;3.58;;;2.22;;
66567;SDS011;53422;49.296;6.900;2023-11-21T07:02:44;6.38;;;3.53;;
66567;SDS011;53422;49.296;6.900;2023-11-21T07:05:09;3.08;;;1.60;;
66567;SDS011;53422;49.296;6.900;2023-11-21T07:07:36;3.13;;;2.05;;
66567;SDS011;53422;49.296;6.900;2023-11-21T07:10:02;3.50;;;2.03;;
66567;SDS011;53422;49.296;6.900;2023-11-21T07:12:29;4.00;;;2.50;;
66567;SDS011;53422;49.296;6.900;2023-11-21T07:14:56;3.05;;;1.75;;
66567;SDS011;53422;49.296;6.900;2023-11-21T07:17:22;5.90;;;2.72;;
66567;SDS011;53422;49.296;6.900;2023-11-21T07:19:48;3.13;;;1.95;;
66567;SDS011;53422;49.296;6.900;2023-11-21T07:22:15;2.83;;;1.98;;
66567;SDS011;53422;49.296;6.900;2023-11-21T07:24:47;3.25;;;1.67;;
66567;SDS011;53422;49.296;6.900;2023-11-21T07:27:15;3.65;;;1.98;;
66567;SDS011;53422;49.296;6.900;2023-11-21T07:29:40;2.97;;;1.65;;
66567;SDS011;53422;49.296;6.900;2023-11-21T07:32:06;3.45;;;2.25;;
66567;SDS011;53422;49.296;6.900;2023-11-21T07:34:34;4.38;;;2.60;;
66567;SDS011;53422;49.296;6.900;2023-11-21T07:37:00;4.93;;;2.35;;
66567;SDS011;53422;49.296;6.900;2023-11-21T07:39:25;4.05;;;2.53;;
66567;SDS011;53422;49.296;6.900;2023-11-21T07:41:51;4.10;;;2.40;;
66567;SDS011;53422;49.296;6.900;2023-11-21T07:44:17;3.63;;;2.05;;
66567;SDS011;53422;49.296;6.900;2023-11-21T07:46:42;5.00;;;2.58;;
66567;SDS011;53422;49.296;6.900;2023-11-21T07:49:09;3.75;;;2.00;;
66567;SDS011;53422;49.296;6.900;2023-11-21T07:51:35;3.08;;;2.15;;
66567;SDS011;53422;49.296;6.900;2023-11-21T07:54:00;5.07;;;2.63;;
66567;SDS011;53422;49.296;6.900;2023-11-21T07:56:26;2.95;;;1.90;;
66567;SDS011;53422;49.296;6.900;2023-11-21T07:58:52;4.35;;;2.58;;
66567;SDS011;53422;49.296;6.900;2023-11-21T08:01:18;3.03;;;2.28;;
66567;SDS011;53422;49.296;6.900;2023-11-21T08:03:44;5.95;;;2.38;;
66567;SDS011;53422;49.296;6.900;2023-11-21T08:06:10;4.25;;;2.58;;
66567;SDS011;53422;49.296;6.900;2023-11-21T08:08:37;5.07;;;2.42;;
66567;SDS011;53422;49.296;6.900;2023-11-21T08:11:02;4.15;;;2.22;;
66567;SDS011;53422;49.296;6.900;2023-11-21T08:13:29;4.22;;;2.42;;
66567;SDS011;53422;49.296;6.900;2023-11-21T08:15:57;5.22;;;2.55;;
66567;SDS011;53422;49.296;6.900;2023-11-21T08:18:30;10.45;;;4.28;;
66567;SDS011;53422;49.296;6.900;2023-11-21T08:20:56;8.70;;;3.88;;
66567;SDS011;53422;49.296;6.900;2023-11-21T08:23:22;5.60;;;2.85;;
66567;SDS011;53422;49.296;6.900;2023-11-21T08:25:51;4.45;;;2.58;;
66567;SDS011;53422;49.296;6.900;2023-11-21T08:28:18;4.32;;;1.75;;
66567;SDS011;53422;49.296;6.900;2023-11-21T08:30:44;5.28;;;2.88;;
66567;SDS011;53422;49.296;6.900;2023-11-21T08:33:09;3.33;;;2.05;;
66567;SDS011;53422;49.296;6.900;2023-11-21T08:35:36;3.58;;;2.40;;
66567;SDS011;53422;49.296;6.900;2023-11-21T08:38:03;4.20;;;2.58;;
66567;SDS011;53422;49.296;6.900;2023-11-21T08:40:29;3.58;;;1.73;;
66567;SDS011;53422;49.296;6.900;2023-11-21T08:42:55;4.20;;;2.33;;
66567;SDS011;53422;49.296;6.900;2023-11-21T08:45:21;2.85;;;1.60;;
66567;SDS011;53422;49.296;6.900;2023-11-21T08:47:47;3.85;;;2.20;;
66567;SDS011;53422;49.296;6.900;2023-11-21T08:50:13;2.90;;;1.67;;
66567;SDS011;53422;49.296;6.900;2023-11-21T08:52:40;2.10;;;1.67;;
66567;SDS011;53422;49.296;6.900;2023-11-21T08:55:06;2.58;;;1.75;;
66567;SDS011;53422;49.296;6.900;2023-11-21T08:57:36;3.30;;;1.88;;
66567;SDS011;53422;49.296;6.900;2023-11-21T09:00:05;3.17;;;2.58;;
66567;SDS011;53422;49.296;6.900;2023-11-21T09:02:35;2.63;;;1.60;;
66567;SDS011;53422;49.296;6.900;2023-11-21T09:05:02;4.75;;;2.53;;
66567;SDS011;53422;49.296;6.900;2023-11-21T09:07:31;3.38;;;2.08;;
66567;SDS011;53422;49.296;6.900;2023-11-21T09:09:56;2.42;;;1.85;;
66567;SDS011;53422;49.296;6.900;2023-11-21T09:12:22;2.40;;;1.67;;
66567;SDS011;53422;49.296;6.900;2023-11-21T09:14:49;5.57;;;1.35;;
66567;SDS011;53422;49.296;6.900;2023-11-21T09:17:15;2.58;;;1.60;;
66567;SDS011;53422;49.296;6.900;2023-11-21T09:19:41;2.30;;;1.95;;
66567;SDS011;53422;49.296;6.900;2023-11-21T09:22:10;2.28;;;1.60;;
66567;SDS011;53422;49.296;6.900;2023-11-21T09:24:36;2.58;;;1.65;;
66567;SDS011;53422;49.296;6.900;2023-11-21T09:27:02;3.15;;;1.92;;
66567;SDS011;53422;49.296;6.900;2023-11-21T09:29:30;2.88;;;1.80;;
66567;SDS011;53422;49.296;6.900;2023-11-21T09:31:56;2.78;;;1.23;;
66567;SDS011;53422;49.296;6.900;2023-11-21T09:34:24;3.65;;;2.75;;
66567;SDS011;53422;49.296;6.900;2023-11-21T09:36:50;2.88;;;1.13;;
66567;SDS011;53422;49.296;6.900;2023-11-21T09:39:16;2.85;;;1.80;;
66567;SDS011;53422;49.296;6.900;2023-11-21T09:41:59;2.92;;;2.17;;
66567;SDS011;53422;49.296;6.900;2023-11-21T09:47:29;5.55;;;2.00;;
66567;SDS011;53422;49.296;6.900;2023-11-21T09:49:55;3.85;;;2.25;;
66567;SDS011;53422;49.296;6.900;2023-11-21T09:52:26;4.47;;;2.38;;
66567;SDS011;53422;49.296;6.900;2023-11-21T09:54:53;4.70;;;2.17;;
66567;SDS011;53422;49.296;6.900;2023-11-21T09:57:23;6.47;;;2.83;;
66567;SDS011;53422;49.296;6.900;2023-11-21T09:59:51;4.97;;;2.53;;
66567;SDS011;53422;49.296;6.900;2023-11-21T10:02:24;4.68;;;2.30;;
66567;SDS011;53422;49.296;6.900;2023-11-21T10:04:53;4.88;;;2.67;;
66567;SDS011;53422;49.296;6.900;2023-11-21T10:07:20;5.20;;;2.05;;
66567;SDS011;53422;49.296;6.900;2023-11-21T10:09:46;4.13;;;1.95;;
66567;SDS011;53422;49.296;6.900;2023-11-21T10:12:13;3.95;;;2.40;;
66567;SDS011;53422;49.296;6.900;2023-11-21T10:14:41;6.05;;;2.65;;
66567;SDS011;53422;49.296;6.900;2023-11-21T10:17:10;8.57;;;2.78;;
66567;SDS011;53422;49.296;6.900;2023-11-21T10:19:37;5.85;;;2.15;;
66567;SDS011;53422;49.296;6.900;2023-11-21T10:22:04;4.20;;;2.30;;
66567;SDS011;53422;49.296;6.900;2023-11-21T10:24:32;3.67;;;2.35;;
66567;SDS011;53422;49.296;6.900;2023-11-21T10:26:58;7.35;;;2.83;;
66567;SDS011;53422;49.296;6.900;2023-11-21T10:29:24;3.88;;;1.98;;
66567;SDS011;53422;49.296;6.900;2023-11-21T10:31:51;4.10;;;2.17;;
66567;SDS011;53422;49.296;6.900;2023-11-21T10:36:45;4.45;;;1.77;;
66567;SDS011;53422;49.296;6.900;2023-11-21T10:39:16;5.00;;;1.98;;
66567;SDS011;53422;49.296;6.900;2023-11-21T10:41:48;3.55;;;2.03;;
66567;SDS011;53422;49.296;6.900;2023-11-21T10:44:15;3.22;;;2.22;;
66567;SDS011;53422;49.296;6.900;2023-11-21T10:46:52;3.30;;;1.88;;
66567;SDS011;53422;49.296;6.900;2023-11-21T10:49:24;3.35;;;2.75;;
66567;SDS011;53422;49.296;6.900;2023-11-21T10:51:51;3.63;;;2.13;;
66567;SDS011;53422;49.296;6.900;2023-11-21T10:54:21;3.40;;;1.65;;
66567;SDS011;53422;49.296;6.900;2023-11-21T10:56:50;4.35;;;1.73;;
66567;SDS011;53422;49.296;6.900;2023-11-21T10:59:24;3.03;;;2.10;;
66567;SDS011;53422;49.296;6.900;2023-11-21T11:01:54;3.13;;;1.60;;
66567;SDS011;53422;49.296;6.900;2023-11-21T11:04:22;3.17;;;2.30;;
66567;SDS011;53422;49.296;6.900;2023-11-21T11:07:02;2.78;;;1.85;;
66567;SDS011;53422;49.296;6.900;2023-11-21T11:09:28;2.92;;;2.28;;
66567;SDS011;53422;49.296;6.900;2023-11-21T11:11:58;4.35;;;2.33;;
66567;SDS011;53422;49.296;6.900;2023-11-21T11:14:24;3.40;;;1.95;;
66567;SDS011;53422;49.296;6.900;2023-11-21T11:16:52;2.70;;;1.13;;
66567;SDS011;53422;49.296;6.900;2023-11-21T11:19:19;2.92;;;2.10;;
66567;SDS011;53422;49.296;6.900;2023-11-21T11:33:25;1.80;;;1.20;;
66567;SDS011;53422;49.296;6.900;2023-11-21T11:36:13;3.65;;;1.88;;
66567;SDS011;53422;49.296;6.900;2023-11-21T11:38:51;2.45;;;1.33;;
66567;SDS011;53422;49.296;6.900;2023-11-21T11:41:24;3.72;;;2.13;;
66567;SDS011;53422;49.296;6.900;2023-11-21T11:43:57;3.03;;;2.10;;
66567;SDS011;53422;49.296;6.900;2023-11-21T11:46:41;2.88;;;1.70;;
66567;SDS011;53422;49.296;6.900;2023-11-21T11:49:10;2.67;;;1.83;;
66567;SDS011;53422;49.296;6.900;2023-11-21T11:51:36;3.15;;;1.95;;
66567;SDS011;53422;49.296;6.900;2023-11-21T11:54:02;4.22;;;2.70;;
66567;SDS011;53422;49.296;6.900;2023-11-21T11:56:29;4.35;;;1.98;;
66567;SDS011;53422;49.296;6.900;2023-11-21T11:59:03;4.22;;;1.92;;
66567;SDS011;53422;49.296;6.900;2023-11-21T12:01:31;3.88;;;1.90;;
66567;SDS011;53422;49.296;6.900;2023-11-21T12:06:45;3.05;;;1.60;;
66567;SDS011;53422;49.296;6.900;2023-11-21T12:09:18;4.43;;;2.00;;
66567;SDS011;53422;49.296;6.900;2023-11-21T12:11:48;3.50;;;1.95;;
66567;SDS011;53422;49.296;6.900;2023-11-21T12:14:14;4.40;;;2.20;;
66567;SDS011;53422;49.296;6.900;2023-11-21T12:16:41;4.70;;;2.33;;
66567;SDS011;53422;49.296;6.900;2023-11-21T12:19:08;4.30;;;2.42;;
66567;SDS011;53422;49.296;6.900;2023-11-21T12:21:36;5.55;;;2.60;;
66567;SDS011;53422;49.296;6.900;2023-11-21T12:24:02;4.28;;;2.22;;
66567;SDS011;53422;49.296;6.900;2023-11-21T12:26:28;3.28;;;2.20;;
66567;SDS011;53422;49.296;6.900;2023-11-21T12:28:54;5.80;;;3.17;;
66567;SDS011;53422;49.296;6.900;2023-11-21T12:31:21;8.43;;;4.20;;
66567;SDS011;53422;49.296;6.900;2023-11-21T12:33:50;6.70;;;3.58;;
66567;SDS011;53422;49.296;6.900;2023-11-21T12:36:16;4.18;;;3.05;;
66567;SDS011;53422;49.296;6.900;2023-11-21T12:38:42;4.40;;;2.05;;
66567;SDS011;53422;49.296;6.900;2023-11-21T12:41:10;5.55;;;2.95;;
66567;SDS011;53422;49.296;6.900;2023-11-21T12:46:07;5.05;;;2.90;;
66567;SDS011;53422;49.296;6.900;2023-11-21T12:48:39;3.88;;;2.53;;
66567;SDS011;53422;49.296;6.900;2023-11-21T12:51:10;4.63;;;2.53;;
66567;SDS011;53422;49.296;6.900;2023-11-21T12:53:37;5.20;;;2.25;;
66567;SDS011;53422;49.296;6.900;2023-11-21T12:56:07;3.30;;;1.48;;
66567;SDS011;53422;49.296;6.900;2023-11-21T12:58:36;4.63;;;2.75;;
66567;SDS011;53422;49.296;6.900;2023-11-21T13:01:04;3.75;;;2.55;;
66567;SDS011;53422;49.296;6.900;2023-11-21T13:03:30;4.10;;;1.88;;
66567;SDS011;53422;49.296;6.900;2023-11-21T13:05:57;4.43;;;2.90;;
66567;SDS011;53422;49.296;6.900;2023-11-21T13:08:24;4.40;;;2.22;;
66567;SDS011;53422;49.296;6.900;2023-11-21T13:10:52;4.25;;;2.38;;
66567;SDS011;53422;49.296;6.900;2023-11-21T13:13:20;6.63;;;3.17;;
66567;SDS011;53422;49.296;6.900;2023-11-21T13:15:50;4.18;;;2.47;;
66567;SDS011;53422;49.296;6.900;2023-11-21T13:18:25;4.15;;;2.40;;
66567;SDS011;53422;49.296;6.900;2023-11-21T13:20:53;3.67;;;2.28;;
66567;SDS011;53422;49.296;6.900;2023-11-21T13:23:20;5.00;;;2.85;;
66567;SDS011;53422;49.296;6.900;2023-11-21T13:25:45;4.03;;;2.30;;
66567;SDS011;53422;49.296;6.900;2023-11-21T13:28:12;4.57;;;2.67;;
66567;SDS011;53422;49.296;6.900;2023-11-21T13:30:40;4.43;;;2.92;;
66567;SDS011;53422;49.296;6.900;2023-11-21T13:33:07;4.53;;;2.65;;
66567;SDS011;53422;49.296;6.900;2023-11-21T13:35:34;5.05;;;2.30;;
66567;SDS011;53422;49.296;6.900;2023-11-21T13:38:10;6.00;;;2.60;;
66567;SDS011;53422;49.296;6.900;2023-11-21T13:40:38;5.85;;;2.92;;
66567;SDS011;53422;49.296;6.900;2023-11-21T13:43:09;5.85;;;2.67;;
66567;SDS011;53422;49.296;6.900;2023-11-21T13:45:36;3.83;;;2.28;;
66567;SDS011;53422;49.296;6.900;2023-11-21T13:48:04;5.43;;;3.08;;
66567;SDS011;53422;49.296;6.900;2023-11-21T13:50:35;4.18;;;2.67;;
66567;SDS011;53422;49.296;6.900;2023-11-21T13:53:04;4.78;;;2.53;;
66567;SDS011;53422;49.296;6.900;2023-11-21T13:55:44;5.75;;;2.85;;
66567;SDS011;53422;49.296;6.900;2023-11-21T13:58:10;5.10;;;3.08;;
66567;SDS011;53422;49.296;6.900;2023-11-21T14:00:42;6.07;;;3.13;;
66567;SDS011;53422;49.296;6.900;2023-11-21T14:03:11;6.78;;;2.80;;
66567;SDS011;53422;49.296;6.900;2023-11-21T14:05:46;5.60;;;2.25;;
66567;SDS011;53422;49.296;6.900;2023-11-21T14:08:16;6.20;;;3.05;;
66567;SDS011;53422;49.296;6.900;2023-11-21T14:10:49;5.63;;;3.50;;
66567;SDS011;53422;49.296;6.900;2023-11-21T14:13:22;6.38;;;3.47;;
66567;SDS011;53422;49.296;6.900;2023-11-21T14:15:49;5.82;;;3.20;;
66567;SDS011;53422;49.296;6.900;2023-11-21T14:18:19;6.38;;;2.60;;
66567;SDS011;53422;49.296;6.900;2023-11-21T14:20:52;4.93;;;3.10;;
66567;SDS011;53422;49.296;6.900;2023-11-21T14:23:18;6.75;;;3.63;;
66567;SDS011;53422;49.296;6.900;2023-11-21T14:25:43;8.25;;;4.30;;
66567;SDS011;53422;49.296;6.900;2023-11-21T14:28:09;8.77;;;3.95;;
66567;SDS011;53422;49.296;6.900;2023-11-21T14:30:37;6.07;;;3.05;;
66567;SDS011;53422;49.296;6.900;2023-11-21T14:33:04;6.10;;;3.35;;
66567;SDS011;53422;49.296;6.900;2023-11-21T14:35:31;6.93;;;3.83;;
66567;SDS011;53422;49.296;6.900;2023-11-21T14:37:57;5.53;;;2.92;;
66567;SDS011;53422;49.296;6.900;2023-11-21T14:40:24;8.35;;;3.50;;
66567;SDS011;53422;49.296;6.900;2023-11-21T14:42:50;4.93;;;3.17;;
66567;SDS011;53422;49.296;6.900;2023-11-21T14:45:20;8.00;;;3.83;;
66567;SDS011;53422;49.296;6.900;2023-11-21T14:47:48;8.00;;;3.85;;
66567;SDS011;53422;49.296;6.900;2023-11-21T14:50:23;5.43;;;3.28;;
66567;SDS011;53422;49.296;6.900;2023-11-21T14:53:07;6.57;;;3.40;;
66567;SDS011;53422;49.296;6.900;2023-11-21T14:55:34;6.85;;;3.88;;
66567;SDS011;53422;49.296;6.900;2023-11-21T14:58:15;5.93;;;3.83;;
66567;SDS011;53422;49.296;6.900;2023-11-21T15:00:50;6.90;;;3.60;;
66567;SDS011;53422;49.296;6.900;2023-11-21T15:03:21;8.52;;;3.60;;
66567;SDS011;53422;49.296;6.900;2023-11-21T15:05:57;5.93;;;3.78;;
66567;SDS011;53422;49.296;6.900;2023-11-21T15:08:50;6.97;;;3.67;;
66567;SDS011;53422;49.296;6.900;2023-11-21T15:11:37;6.13;;;2.33;;